createdAt,value
2022-08-19T00:01:38.662Z,0.10
2022-08-19T00:04:06.515Z,0.00
2022-08-19T00:06:32.776Z,0.08
2022-08-19T00:09:01.040Z,0.13
2022-08-19T00:11:28.510Z,0.00
2022-08-19T00:13:56.321Z,0.00
2022-08-19T00:16:26.096Z,0.10
2022-08-19T00:18:53.368Z,0.00
2022-08-19T00:21:19.696Z,0.08
2022-08-19T00:23:45.994Z,0.00
2022-08-19T00:26:12.398Z,0.10
2022-08-19T00:28:38.668Z,0.13
2022-08-19T00:31:05.451Z,0.03
2022-08-19T00:33:34.899Z,0.10
2022-08-19T00:36:01.987Z,0.00
2022-08-19T00:38:37.118Z,0.10
2022-08-19T00:41:04.032Z,0.10
2022-08-19T00:43:30.304Z,0.10
2022-08-19T00:45:56.588Z,0.10
2022-08-19T00:48:24.287Z,0.30
2022-08-19T00:50:52.115Z,0.25
2022-08-19T00:53:20.207Z,0.10
2022-08-19T00:55:48.082Z,0.10
2022-08-19T00:58:20.055Z,0.30
2022-08-19T01:00:47.114Z,0.20
2022-08-19T01:03:15.950Z,0.10
2022-08-19T01:05:46.248Z,0.10
2022-08-19T01:08:13.118Z,0.10
2022-08-19T01:10:50.579Z,0.05
2022-08-19T01:13:18.406Z,0.03
2022-08-19T01:15:46.960Z,0.10
2022-08-19T01:18:14.630Z,0.10
2022-08-19T01:20:41.494Z,0.00
2022-08-19T01:23:07.739Z,0.10
2022-08-19T01:25:37.023Z,0.00
2022-08-19T01:28:10.582Z,0.10
2022-08-19T01:33:06.846Z,0.05
2022-08-19T01:35:33.467Z,0.08
2022-08-19T01:38:01.717Z,0.08
2022-08-19T01:40:30.126Z,0.10
2022-08-19T01:42:56.396Z,0.43
2022-08-19T01:45:23.484Z,0.10
2022-08-19T01:47:55.564Z,0.10
2022-08-19T01:50:28.615Z,0.10
2022-08-19T01:53:02.210Z,0.15
2022-08-19T01:55:33.517Z,0.15
2022-08-19T01:58:02.880Z,0.00
2022-08-19T02:00:30.589Z,0.10
2022-08-19T02:02:57.265Z,0.10
2022-08-19T02:05:23.918Z,0.10
2022-08-19T02:07:50.273Z,0.10
2022-08-19T02:10:21.934Z,0.50
2022-08-19T02:12:48.685Z,0.10
2022-08-19T02:15:16.368Z,0.17
2022-08-19T02:17:42.700Z,0.03
2022-08-19T02:20:09.446Z,0.10
2022-08-19T02:22:36.310Z,0.17
2022-08-19T02:25:02.652Z,0.10
2022-08-19T02:27:28.905Z,0.17
2022-08-19T02:29:55.175Z,0.10
2022-08-19T02:32:21.508Z,0.10
2022-08-19T02:34:48.131Z,0.10
2022-08-19T02:37:35.119Z,0.20
2022-08-19T02:40:01.909Z,0.20
2022-08-19T02:42:29.510Z,0.10
2022-08-19T02:44:56.562Z,0.10
2022-08-19T02:47:22.809Z,0.10
2022-08-19T02:49:50.822Z,0.20
2022-08-19T02:52:17.259Z,0.10
2022-08-19T02:54:43.544Z,0.17
2022-08-19T02:57:10.012Z,0.15
2022-08-19T02:59:36.267Z,0.00
2022-08-19T03:02:02.651Z,0.10
2022-08-19T03:04:30.504Z,0.10
2022-08-19T03:07:00.706Z,0.00
2022-08-19T03:09:30.743Z,0.13
2022-08-19T03:11:57.073Z,0.10
2022-08-19T03:14:24.134Z,0.20
2022-08-19T03:16:51.654Z,0.10
2022-08-19T03:19:19.277Z,0.10
2022-08-19T03:21:45.877Z,0.15
2022-08-19T03:24:12.628Z,0.20
2022-08-19T03:26:40.414Z,0.13
2022-08-19T03:29:06.703Z,0.17
2022-08-19T03:31:45.039Z,0.10
2022-08-19T03:34:21.031Z,0.00
2022-08-19T03:36:47.385Z,0.20
2022-08-19T03:39:13.708Z,0.30
2022-08-19T03:41:45.475Z,0.13
2022-08-19T03:44:18.303Z,0.20
2022-08-19T03:46:45.543Z,0.00
2022-08-19T03:49:11.809Z,0.10
2022-08-19T03:51:41.921Z,0.00
2022-08-19T03:54:09.548Z,0.10
2022-08-19T03:56:36.615Z,0.00
2022-08-19T03:59:04.119Z,0.03
2022-08-19T04:01:35.059Z,0.30
2022-08-19T04:04:02.009Z,0.08
2022-08-19T04:06:31.168Z,0.10
2022-08-19T04:08:58.847Z,0.38
2022-08-19T04:11:43.065Z,0.10
2022-08-19T04:14:11.817Z,0.10
2022-08-19T04:16:38.181Z,0.10
2022-08-19T04:19:04.832Z,0.08
2022-08-19T04:21:31.396Z,0.10
2022-08-19T04:23:58.110Z,0.17
2022-08-19T04:26:26.044Z,0.00
2022-08-19T04:28:52.776Z,0.10
2022-08-19T04:31:20.280Z,0.00
2022-08-19T04:33:46.618Z,0.10
2022-08-19T04:36:21.223Z,0.00
2022-08-19T04:38:53.832Z,0.10
2022-08-19T04:41:39.717Z,0.13
2022-08-19T04:44:06.154Z,0.80
2022-08-19T04:46:39.247Z,0.10
2022-08-19T04:49:13.128Z,0.20
2022-08-19T04:51:41.369Z,0.08
2022-08-19T04:54:07.603Z,0.00
2022-08-19T04:56:33.855Z,0.00
2022-08-19T04:59:03.936Z,0.13
2022-08-19T05:01:30.987Z,0.00
2022-08-19T05:03:57.341Z,0.00
2022-08-19T05:06:23.896Z,0.08
2022-08-19T05:08:50.222Z,0.08
2022-08-19T05:11:16.450Z,0.00
2022-08-19T05:13:43.782Z,0.00
2022-08-19T05:16:10.889Z,0.15
2022-08-19T05:18:55.827Z,0.10
2022-08-19T05:21:40.617Z,0.10
2022-08-19T05:24:09.865Z,0.10
2022-08-19T05:26:39.883Z,0.00
2022-08-19T05:29:06.595Z,0.00
2022-08-19T05:31:33.533Z,0.32
2022-08-19T05:33:59.795Z,0.10
2022-08-19T05:36:27.646Z,0.00
2022-08-19T05:38:54.267Z,0.00
2022-08-19T05:41:21.244Z,0.10
2022-08-19T05:43:47.508Z,0.17
2022-08-19T05:46:20.389Z,0.10
2022-08-19T05:48:57.336Z,0.03
2022-08-19T05:51:27.308Z,0.10
2022-08-19T05:53:55.299Z,0.05
2022-08-19T05:56:21.624Z,0.28
2022-08-19T05:58:48.139Z,0.20
2022-08-19T06:01:19.059Z,0.20
2022-08-19T06:03:45.894Z,0.20
2022-08-19T06:06:13.855Z,0.20
2022-08-19T06:08:40.681Z,0.20
2022-08-19T06:11:19.292Z,0.30
2022-08-19T06:13:48.476Z,0.40
2022-08-19T06:16:21.460Z,0.40
2022-08-19T06:18:47.715Z,0.30
2022-08-19T06:21:13.970Z,0.38
2022-08-19T06:23:40.372Z,0.50
2022-08-19T06:26:06.702Z,0.30
2022-08-19T06:28:34.324Z,0.38
2022-08-19T06:31:06.947Z,0.20
2022-08-19T06:33:33.182Z,0.40
2022-08-19T06:35:59.428Z,0.43
2022-08-19T06:38:25.722Z,0.60
2022-08-19T06:40:51.990Z,0.52
2022-08-19T06:43:18.607Z,0.50
2022-08-19T06:45:44.928Z,0.60
2022-08-19T06:48:14.171Z,0.50
2022-08-19T06:50:41.062Z,0.68
2022-08-19T06:53:07.395Z,0.40
2022-08-19T06:55:33.732Z,0.60
2022-08-19T06:58:03.442Z,0.60
2022-08-19T07:03:06.171Z,0.60
2022-08-19T07:05:38.375Z,0.60
2022-08-19T07:08:06.982Z,0.50
2022-08-19T07:10:33.829Z,0.50
2022-08-19T07:13:00.073Z,0.55
2022-08-19T07:15:26.304Z,0.60
2022-08-19T07:17:52.901Z,0.60
2022-08-19T07:20:19.880Z,0.60
2022-08-19T07:22:46.432Z,0.52
2022-08-19T07:25:14.150Z,0.60
2022-08-19T07:27:40.594Z,0.50
2022-08-19T07:30:07.911Z,0.50
2022-08-19T07:32:38.028Z,0.50
2022-08-19T07:35:05.660Z,0.75
2022-08-19T07:37:33.429Z,0.35
2022-08-19T07:40:00.724Z,0.40
2022-08-19T07:42:27.567Z,0.40
2022-08-19T07:44:53.827Z,0.60
2022-08-19T07:47:47.915Z,0.40
2022-08-19T07:50:08.729Z,0.40
2022-08-19T07:52:36.804Z,0.40
2022-08-19T07:55:04.766Z,0.80
2022-08-19T07:57:31.166Z,0.50
2022-08-19T07:59:57.473Z,0.40
2022-08-19T08:02:23.719Z,0.35
2022-08-19T08:05:08.519Z,0.50
2022-08-19T08:07:53.269Z,0.30
2022-08-19T08:10:20.995Z,0.47
2022-08-19T08:12:51.955Z,0.40
2022-08-19T08:15:37.495Z,0.50
2022-08-19T08:18:06.936Z,0.50
2022-08-19T08:20:34.386Z,0.30
2022-08-19T08:23:20.754Z,0.40
2022-08-19T08:25:49.358Z,0.47
2022-08-19T08:28:17.664Z,0.50
2022-08-19T08:30:46.510Z,0.40
2022-08-19T08:33:12.827Z,0.40
2022-08-19T08:35:40.240Z,0.45
2022-08-19T08:38:06.516Z,0.47
2022-08-19T08:40:45.259Z,0.40
2022-08-19T08:43:22.189Z,0.38
2022-08-19T08:45:53.591Z,0.32
2022-08-19T08:50:51.403Z,0.40
2022-08-19T08:53:29.858Z,0.40
2022-08-19T08:56:01.225Z,0.50
2022-08-19T08:58:42.878Z,0.40
2022-08-19T09:01:12.742Z,0.40
2022-08-19T09:03:41.016Z,0.30
2022-08-19T09:06:16.900Z,0.45
2022-08-19T09:08:46.460Z,0.40
2022-08-19T09:11:42.730Z,0.40
2022-08-19T09:14:40.634Z,0.50
2022-08-19T09:17:08.879Z,0.55
2022-08-19T09:19:35.995Z,0.60
2022-08-19T09:22:02.313Z,0.47
2022-08-19T09:24:31.028Z,0.50
2022-08-19T09:26:57.638Z,0.50
2022-08-19T09:29:23.916Z,0.43
2022-08-19T09:31:50.906Z,0.50
2022-08-19T09:34:21.294Z,0.30
2022-08-19T09:36:53.300Z,0.40
2022-08-19T09:39:19.590Z,0.45
2022-08-19T09:41:47.299Z,0.43
2022-08-19T09:44:15.339Z,0.40
2022-08-19T09:46:41.672Z,0.30
2022-08-19T09:49:07.934Z,0.50
2022-08-19T09:51:35.110Z,0.50
2022-08-19T09:54:04.682Z,0.50
2022-08-19T09:56:31.362Z,0.50
2022-08-19T09:59:01.005Z,0.50
2022-08-19T10:01:29.693Z,0.40
2022-08-19T10:03:56.757Z,0.60
2022-08-19T10:06:43.998Z,0.40
2022-08-19T10:09:11.889Z,0.50
2022-08-19T10:11:46.899Z,0.60
2022-08-19T10:14:23.156Z,0.40
2022-08-19T10:16:50.233Z,0.50
2022-08-19T10:19:25.484Z,0.50
2022-08-19T10:21:52.602Z,0.32
2022-08-19T10:24:20.989Z,0.50
2022-08-19T10:26:49.063Z,0.40
2022-08-19T10:29:32.171Z,0.45
2022-08-19T10:32:02.446Z,0.50
2022-08-19T10:34:29.492Z,0.40
2022-08-19T10:37:01.232Z,0.55
2022-08-19T10:39:30.743Z,0.50
2022-08-19T10:41:57.759Z,0.50
2022-08-19T10:44:24.846Z,0.50
2022-08-19T10:46:59.787Z,0.50
2022-08-19T10:49:26.192Z,0.50
2022-08-19T10:52:32.260Z,0.50
2022-08-19T10:55:17.458Z,0.50
2022-08-19T10:58:03.463Z,0.55
2022-08-19T11:00:31.871Z,0.50
2022-08-19T11:02:58.395Z,0.68
2022-08-19T11:05:24.740Z,0.60
2022-08-19T11:07:52.315Z,0.60
2022-08-19T11:10:21.864Z,0.52
2022-08-19T11:12:48.968Z,0.60
2022-08-19T11:15:15.339Z,0.50
2022-08-19T11:17:42.409Z,0.60
2022-08-19T11:20:09.655Z,0.70
2022-08-19T11:22:40.526Z,0.80
2022-08-19T11:25:09.034Z,0.52
2022-08-19T11:27:38.460Z,0.63
2022-08-19T11:30:05.075Z,0.60
2022-08-19T11:32:34.724Z,0.60
2022-08-19T11:35:01.000Z,0.60
2022-08-19T11:37:27.875Z,0.80
2022-08-19T11:39:54.550Z,0.70
2022-08-19T11:42:39.711Z,0.77
2022-08-19T11:45:06.482Z,0.70
2022-08-19T11:47:33.259Z,0.75
2022-08-19T11:49:59.500Z,0.60
2022-08-19T11:52:26.342Z,0.60
2022-08-19T11:54:52.684Z,0.60
2022-08-19T11:57:20.583Z,0.60
2022-08-19T11:59:52.542Z,0.82
2022-08-19T12:02:19.931Z,0.60
2022-08-19T12:04:46.212Z,0.60
2022-08-19T12:07:12.855Z,0.65
2022-08-19T12:09:42.702Z,0.60
2022-08-19T12:12:09.504Z,0.63
2022-08-19T12:14:36.323Z,0.55
2022-08-19T12:17:05.134Z,0.60
2022-08-19T12:19:31.464Z,0.50
2022-08-19T12:22:04.555Z,0.40
2022-08-19T12:24:32.512Z,0.68
2022-08-19T12:27:02.981Z,0.60
2022-08-19T12:29:30.300Z,0.57
2022-08-19T12:32:03.884Z,0.50
2022-08-19T12:34:31.015Z,0.50
2022-08-19T12:36:58.419Z,0.45
2022-08-19T12:39:25.195Z,0.50
2022-08-19T12:41:54.607Z,0.50
2022-08-19T12:44:29.165Z,0.40
2022-08-19T12:46:56.086Z,0.40
2022-08-19T12:49:43.583Z,0.50
2022-08-19T12:52:09.336Z,0.50
2022-08-19T12:54:36.733Z,0.70
2022-08-19T12:57:07.064Z,0.50
2022-08-19T12:59:33.322Z,0.60
2022-08-19T13:01:59.579Z,0.47
2022-08-19T13:04:25.900Z,0.47
2022-08-19T13:06:52.180Z,0.45
2022-08-19T13:09:18.464Z,0.40
2022-08-19T13:11:45.913Z,0.47
2022-08-19T13:14:12.166Z,0.50
2022-08-19T13:16:38.766Z,0.60
2022-08-19T13:19:06.128Z,0.50
2022-08-19T13:21:32.390Z,0.50
2022-08-19T13:23:58.653Z,0.50
2022-08-19T13:26:25.238Z,0.50
2022-08-19T13:29:10.399Z,0.45
2022-08-19T13:31:55.639Z,0.47
2022-08-19T13:34:31.221Z,0.40
2022-08-19T13:36:57.862Z,0.52
2022-08-19T13:39:24.825Z,0.50
2022-08-19T13:41:51.430Z,0.50
2022-08-19T13:44:22.009Z,0.60
2022-08-19T13:46:54.283Z,0.47
2022-08-19T13:49:21.318Z,0.50
2022-08-19T13:51:47.718Z,0.70
2022-08-19T13:54:14.083Z,1.30
2022-08-19T13:56:41.311Z,2.17
2022-08-19T13:59:07.570Z,0.98
2022-08-19T14:01:33.848Z,0.50
2022-08-19T14:04:00.213Z,0.47
2022-08-19T14:06:26.483Z,0.30
2022-08-19T14:08:53.685Z,0.40
2022-08-19T14:11:20.009Z,0.50
2022-08-19T14:13:46.264Z,0.40
2022-08-19T14:16:14.104Z,0.40
2022-08-19T14:18:40.768Z,0.40
2022-08-19T14:21:07.641Z,0.45
2022-08-19T14:23:34.693Z,0.43
2022-08-19T14:26:04.799Z,0.40
2022-08-19T14:28:31.287Z,0.32
2022-08-19T14:30:57.577Z,0.30
2022-08-19T14:33:24.035Z,0.30
2022-08-19T14:35:54.829Z,0.30
2022-08-19T14:38:28.161Z,0.20
2022-08-19T14:41:08.621Z,0.40
2022-08-19T14:43:35.190Z,0.28
2022-08-19T14:46:01.467Z,0.30
2022-08-19T14:48:29.041Z,0.30
2022-08-19T14:50:55.543Z,0.30
2022-08-19T14:53:21.831Z,0.40
2022-08-19T14:55:48.174Z,0.20
2022-08-19T14:58:29.172Z,0.20
2022-08-19T15:00:57.161Z,0.10
2022-08-19T15:03:23.559Z,0.20
2022-08-19T15:05:49.848Z,0.25
2022-08-19T15:08:16.107Z,0.20
2022-08-19T15:10:42.363Z,0.20
2022-08-19T15:13:10.294Z,0.30
2022-08-19T15:15:36.640Z,0.20
2022-08-19T15:18:03.539Z,0.20
2022-08-19T15:20:30.325Z,0.20
2022-08-19T15:22:56.591Z,0.20
2022-08-19T15:25:22.868Z,0.30
2022-08-19T15:27:49.134Z,0.10
2022-08-19T15:30:20.984Z,0.20
2022-08-19T15:32:49.110Z,0.10
2022-08-19T15:35:15.631Z,0.20
2022-08-19T15:37:41.954Z,0.20
2022-08-19T15:40:09.485Z,0.20
2022-08-19T15:42:37.293Z,0.28
2022-08-19T15:45:06.894Z,0.30
2022-08-19T15:47:34.683Z,0.20
2022-08-19T15:50:04.661Z,0.30
2022-08-19T15:52:30.955Z,0.20
2022-08-19T15:54:59.002Z,0.20
2022-08-19T15:57:25.336Z,0.22
2022-08-19T16:00:10.104Z,0.20
2022-08-19T16:02:56.289Z,0.30
2022-08-19T16:05:44.568Z,0.20
2022-08-19T16:08:11.083Z,0.20
2022-08-19T16:10:38.250Z,0.20
2022-08-19T16:13:05.991Z,0.20
2022-08-19T16:15:33.645Z,0.28
2022-08-19T16:18:02.708Z,0.30
2022-08-19T16:20:29.620Z,0.30
2022-08-19T16:22:58.409Z,0.30
2022-08-19T16:25:27.561Z,0.32
2022-08-19T16:28:07.513Z,0.20
2022-08-19T16:30:35.392Z,0.30
2022-08-19T16:33:01.648Z,0.20
2022-08-19T16:35:27.940Z,0.30
2022-08-19T16:37:54.337Z,0.30
2022-08-19T16:40:20.828Z,0.30
2022-08-19T16:42:47.247Z,0.45
2022-08-19T16:45:13.536Z,0.30
2022-08-19T16:47:40.185Z,0.20
2022-08-19T16:50:07.589Z,0.40
2022-08-19T16:52:34.806Z,0.30
2022-08-19T16:55:01.296Z,0.40
2022-08-19T16:57:27.598Z,0.30
2022-08-19T16:59:53.871Z,0.30
2022-08-19T17:02:22.448Z,0.45
2022-08-19T17:04:58.536Z,0.40
2022-08-19T17:07:25.948Z,0.40
2022-08-19T17:09:52.334Z,0.30
2022-08-19T17:12:18.606Z,0.90
2022-08-19T17:14:45.977Z,0.52
2022-08-19T17:17:12.758Z,0.60
2022-08-19T17:19:41.607Z,0.70
2022-08-19T17:22:08.864Z,1.15
2022-08-19T17:24:37.922Z,0.70
2022-08-19T17:27:07.021Z,0.60
2022-08-19T17:29:33.673Z,0.50
2022-08-19T17:32:00.035Z,0.90
2022-08-19T17:34:26.348Z,0.30
2022-08-19T17:36:52.981Z,0.30
2022-08-19T17:39:19.327Z,0.20
2022-08-19T17:41:45.638Z,0.30
2022-08-19T17:44:11.893Z,0.30
2022-08-19T17:46:38.169Z,0.30
2022-08-19T17:49:04.571Z,0.28
2022-08-19T17:51:33.804Z,0.40
2022-08-19T17:54:00.504Z,0.20
2022-08-19T17:56:28.657Z,0.25
2022-08-19T17:58:59.635Z,0.40
2022-08-19T18:03:52.872Z,0.22
2022-08-19T18:06:19.130Z,0.20
2022-08-19T18:08:46.281Z,0.40
2022-08-19T18:11:12.694Z,0.32
2022-08-19T18:13:40.531Z,0.20
2022-08-19T18:16:11.089Z,0.30
2022-08-19T18:18:41.383Z,0.20
2022-08-19T18:21:08.442Z,0.20
2022-08-19T18:23:44.549Z,0.20
2022-08-19T18:26:12.014Z,0.30
2022-08-19T18:28:39.719Z,0.50
2022-08-19T18:31:15.750Z,0.30
2022-08-19T18:33:44.171Z,0.22
2022-08-19T18:36:10.996Z,0.20
2022-08-19T18:38:55.936Z,0.20
2022-08-19T18:41:40.796Z,0.30
2022-08-19T18:44:25.474Z,0.30
2022-08-19T18:47:13.255Z,0.32
2022-08-19T18:49:39.595Z,0.20
2022-08-19T18:52:06.055Z,0.30
2022-08-19T18:54:33.016Z,0.20
2022-08-19T18:57:03.459Z,0.35
2022-08-19T18:59:29.929Z,0.20
2022-08-19T19:01:58.056Z,0.20
2022-08-19T19:04:29.529Z,0.30
2022-08-19T19:06:55.802Z,0.22
2022-08-19T19:09:23.123Z,0.20
2022-08-19T19:11:50.851Z,0.20
2022-08-19T19:14:45.744Z,0.30
2022-08-19T19:17:08.050Z,0.35
2022-08-19T19:19:34.673Z,0.20
2022-08-19T19:22:02.555Z,0.30
2022-08-19T19:24:30.548Z,0.30
2022-08-19T19:26:58.104Z,0.30
2022-08-19T19:29:24.397Z,0.32
2022-08-19T19:31:55.826Z,0.38
2022-08-19T19:34:29.365Z,0.13
2022-08-19T19:36:56.877Z,0.38
2022-08-19T19:39:30.664Z,0.20
2022-08-19T19:42:12.868Z,0.20
2022-08-19T19:44:48.787Z,0.20
2022-08-19T19:47:16.014Z,0.30
2022-08-19T19:50:03.875Z,0.20
2022-08-19T19:52:28.778Z,0.30
2022-08-19T19:54:56.643Z,0.20
2022-08-19T19:57:26.709Z,0.20
2022-08-19T19:59:54.061Z,0.28
2022-08-19T20:02:21.867Z,0.20
2022-08-19T20:04:48.737Z,0.43
2022-08-19T20:07:14.995Z,0.28
2022-08-19T20:09:58.806Z,0.20
2022-08-19T20:12:25.787Z,0.28
2022-08-19T20:14:52.044Z,0.30
2022-08-19T20:17:20.458Z,0.63
2022-08-19T20:19:47.881Z,0.30
2022-08-19T20:22:14.406Z,0.20
2022-08-19T20:24:42.297Z,0.20
2022-08-19T20:27:08.995Z,0.35
2022-08-19T20:29:39.017Z,0.20
2022-08-19T20:32:07.818Z,0.20
2022-08-19T20:34:34.137Z,0.28
2022-08-19T20:37:00.545Z,0.20
2022-08-19T20:39:26.810Z,0.20
2022-08-19T20:41:53.201Z,0.20
2022-08-19T20:44:19.786Z,0.40
2022-08-19T20:46:55.410Z,0.20
2022-08-19T20:49:27.243Z,0.30
2022-08-19T20:51:54.451Z,0.28
2022-08-19T20:54:20.852Z,0.20
2022-08-19T20:56:47.241Z,0.40
2022-08-19T20:59:13.474Z,0.45
2022-08-19T21:01:39.795Z,0.32
2022-08-19T21:04:06.122Z,0.20
2022-08-19T21:06:32.396Z,0.30
2022-08-19T21:08:58.667Z,0.38
2022-08-19T21:11:25.230Z,0.30
2022-08-19T21:13:51.487Z,0.20
2022-08-19T21:16:17.727Z,0.30
2022-08-19T21:18:44.059Z,0.10
2022-08-19T21:21:10.321Z,0.40
2022-08-19T21:23:36.612Z,0.32
2022-08-19T21:26:02.954Z,0.20
2022-08-19T21:28:35.113Z,0.20
2022-08-19T21:31:03.915Z,0.32
2022-08-19T21:33:33.146Z,0.20
2022-08-19T21:35:59.988Z,0.30
2022-08-19T21:38:26.791Z,0.20
2022-08-19T21:40:53.169Z,0.20
2022-08-19T21:43:19.513Z,0.30
2022-08-19T21:45:46.787Z,0.30
2022-08-19T21:48:14.382Z,0.28
2022-08-19T21:50:43.986Z,0.40
2022-08-19T21:53:17.632Z,0.30
2022-08-19T21:55:45.669Z,0.20
2022-08-19T21:58:13.582Z,0.17
2022-08-19T22:00:40.417Z,0.30
2022-08-19T22:03:07.056Z,0.38
2022-08-19T22:05:34.059Z,0.30
2022-08-19T22:08:01.208Z,0.40
2022-08-19T22:10:29.210Z,0.43
2022-08-19T22:12:56.223Z,0.50
2022-08-19T22:15:23.015Z,0.40
2022-08-19T22:17:49.802Z,0.25
2022-08-19T22:20:18.527Z,0.50
2022-08-19T22:22:47.191Z,0.50
2022-08-19T22:25:30.071Z,0.20
2022-08-19T22:28:00.450Z,0.50
2022-08-19T22:30:33.811Z,0.30
2022-08-19T22:33:02.070Z,0.30
2022-08-19T22:35:31.371Z,0.40
2022-08-19T22:38:07.213Z,0.38
2022-08-19T22:40:36.169Z,0.40
2022-08-19T22:43:07.206Z,0.45
2022-08-19T22:45:33.571Z,0.40
2022-08-19T22:48:02.474Z,0.30
2022-08-19T22:50:28.727Z,0.20
2022-08-19T22:52:58.550Z,0.20
2022-08-19T22:55:27.587Z,0.40
2022-08-19T22:57:53.970Z,0.30
2022-08-19T23:00:21.465Z,0.20
2022-08-19T23:02:51.846Z,0.38
2022-08-19T23:05:22.123Z,0.80
2022-08-19T23:07:52.119Z,0.17
2022-08-19T23:10:27.175Z,1.00
2022-08-19T23:12:55.082Z,0.40
2022-08-19T23:15:24.153Z,0.28
2022-08-19T23:17:50.876Z,0.40
2022-08-19T23:20:17.188Z,0.30
2022-08-19T23:22:46.131Z,0.17
2022-08-19T23:25:13.939Z,0.60
2022-08-19T23:27:58.994Z,0.43
2022-08-19T23:30:28.129Z,0.20
2022-08-19T23:32:58.869Z,0.40
2022-08-19T23:35:25.343Z,0.32
2022-08-19T23:37:52.081Z,0.40
2022-08-19T23:40:21.876Z,0.60
2022-08-19T23:42:49.749Z,0.40
2022-08-19T23:45:16.846Z,0.50
2022-08-19T23:47:50.098Z,0.30
2022-08-19T23:50:17.187Z,0.50
2022-08-19T23:52:45.046Z,0.30
2022-08-19T23:55:11.303Z,0.20
2022-08-19T23:57:37.598Z,0.32
